Greifswald — 3FEC8 — position and weather

sailwx.info

Track history (hours):
 
Tides and Currents Weather Stations Pressure Air Temp Water Temp Dewpoint Dewpoint Depression Visibility Wind Speed Wind Dir Waves Ship Positions

Greifswald

Last reported at 2015-Jan-20 17:07 UTC. Time now 2015-Jan-25 16:25 UTC.
Position N 44°44' E 032°56'.

Length 191 m; draft 6.5 m.

Type: Ship. MMSI: 370492000.

Date/timePositionNaut miles runAvg speedWind from/ knotsBaromVisibWave heightAir tempDewpointWater temp
2015-Jan-20 17:07N 44°44' E 032°56'711.3
2015-Jan-20 16:30N 44°39' E 033°02'4911.2
2015-Jan-20 12:05N 44°06' E 033°54'910.9
2015-Jan-20 11:15N 44°03' E 034°06'1010.8
2015-Jan-20 10:20N 43°59' E 034°18'810.7
2015-Jan-20 09:34N 43°55' E 034°29'85 7.6
2015-Jan-19 22:18N 43°22' E 036°18'13 6.7
2015-Jan-19 20:17N 43°17' E 036°34'  
2015-Jan-15 21:32N 43°54' E 034°22'1010.5
2015-Jan-15 20:33N 43°58' E 034°09'1310.2
2015-Jan-15 19:17N 44°04' E 033°53'  
2015-Jan-13 06:28N 46°19' E 030°43'  
Track history (hours):
 
Tides and Currents Weather Stations Pressure Air Temp Water Temp Dewpoint Dewpoint Depression Visibility Wind Speed Wind Dir Waves Ship Positions

Greifswald

Last reported at 2015-Jan-20 17:07 UTC. Time now 2015-Jan-25 16:25 UTC.
Position N 44°44' E 032°56'.

Length 191 m; draft 6.5 m.

Type: Ship. MMSI: 370492000.

Date/timePositionNaut miles runAvg speedWind from/ knotsBaromVisibWave heightAir tempDewpointWater temp
2015-Jan-20 17:07N 44°44' E 032°56'711.3
2015-Jan-20 16:30N 44°39' E 033°02'4911.2
2015-Jan-20 12:05N 44°06' E 033°54'910.9
2015-Jan-20 11:15N 44°03' E 034°06'1010.8
2015-Jan-20 10:20N 43°59' E 034°18'810.7
2015-Jan-20 09:34N 43°55' E 034°29'85 7.6
2015-Jan-19 22:18N 43°22' E 036°18'13 6.7
2015-Jan-19 20:17N 43°17' E 036°34'  
2015-Jan-15 21:32N 43°54' E 034°22'1010.5
2015-Jan-15 20:33N 43°58' E 034°09'1310.2
2015-Jan-15 19:17N 44°04' E 033°53'  
2015-Jan-13 06:28N 46°19' E 030°43'  

Dump ship's entire track history